SRG199 EGPK-EGPK
Flight info
| Callsign | SRG199 |
|---|---|
| Flight time | 1h 50m |
| Altitude | 2000 |
| Route | VFR SAR |
| Aircraft | A139/L-SBDFGHIM1M3RYZ/LB1 |
Departure
| Time | 2026-04-23 18:50 |
|---|---|
| Airport | Glasgow Prestwick Airport (EGPK) |
Arrival
| Time | 2026-04-23 20:40 |
|---|---|
| Airport | Glasgow Prestwick Airport (EGPK) |
| Time | Latitude | Longitude | Altitude | Speed | Heading |
|---|---|---|---|---|---|
| 2026-04-23 18:37 | 55.50969 | -4.58296 | 57 ft | 0 kts | 98° |
| 2026-04-23 18:48 | 55.50969 | -4.58292 | 57 ft | 0 kts | 92° |
| 2026-04-23 18:49 | 55.50964 | -4.58291 | 68 ft | 0 kts | 63° |
| 2026-04-23 18:49 | 55.50964 | -4.58277 | 129 ft | 15 kts | 67° |
| 2026-04-23 18:49 | 55.51061 | -4.57634 | 265 ft | 92 kts | 72° |
| 2026-04-23 18:49 | 55.51196 | -4.56284 | 433 ft | 124 kts | 79° |
| 2026-04-23 18:50 | 55.51260 | -4.55254 | 673 ft | 126 kts | 81° |
| 2026-04-23 18:50 | 55.51379 | -4.53202 | 1131 ft | 126 kts | 80° |
| 2026-04-23 18:50 | 55.51456 | -4.51697 | 1333 ft | 128 kts | 80° |
| 2026-04-23 18:50 | 55.51565 | -4.49977 | 1310 ft | 153 kts | 81° |
| 2026-04-23 18:51 | 55.51708 | -4.48084 | 1551 ft | 156 kts | 81° |
| 2026-04-23 18:51 | 55.51845 | -4.46189 | 1798 ft | 155 kts | 81° |
| 2026-04-23 18:51 | 55.51982 | -4.44310 | 2002 ft | 156 kts | 81° |
| 2026-04-23 18:51 | 55.52015 | -4.42377 | 2237 ft | 156 kts | 89° |
| 2026-04-23 18:52 | 55.52014 | -4.40477 | 2438 ft | 158 kts | 89° |
| 2026-04-23 18:52 | 55.52023 | -4.38521 | 2660 ft | 159 kts | 89° |
| 2026-04-23 18:52 | 55.52039 | -4.36561 | 2893 ft | 160 kts | 85° |
| 2026-04-23 18:52 | 55.52018 | -4.34594 | 2975 ft | 159 kts | 89° |
| 2026-04-23 18:53 | 55.52023 | -4.32664 | 2996 ft | 159 kts | 89° |
| 2026-04-23 18:53 | 55.52049 | -4.30694 | 3009 ft | 159 kts | 89° |
| 2026-04-23 18:53 | 55.52095 | -4.28737 | 3009 ft | 160 kts | 89° |
| 2026-04-23 18:53 | 55.52149 | -4.26776 | 3017 ft | 160 kts | 89° |
| 2026-04-23 18:54 | 55.52204 | -4.24815 | 3025 ft | 160 kts | 89° |
| 2026-04-23 18:54 | 55.52257 | -4.22875 | 3026 ft | 160 kts | 89° |
| 2026-04-23 18:54 | 55.52311 | -4.20922 | 3020 ft | 160 kts | 89° |
| 2026-04-23 18:54 | 55.52366 | -4.18946 | 3009 ft | 160 kts | 89° |
| 2026-04-23 18:55 | 55.52416 | -4.16992 | 2998 ft | 161 kts | 89° |
| 2026-04-23 18:55 | 55.52465 | -4.15003 | 3007 ft | 162 kts | 89° |
| 2026-04-23 18:55 | 55.52512 | -4.13015 | 3012 ft | 162 kts | 89° |
| 2026-04-23 18:55 | 55.52555 | -4.11041 | 3020 ft | 161 kts | 89° |
| 2026-04-23 18:56 | 55.52587 | -4.09714 | 3062 ft | 163 kts | 89° |
| 2026-04-23 18:56 | 55.52663 | -4.07069 | 3080 ft | 161 kts | 88° |
| 2026-04-23 18:56 | 55.52722 | -4.05100 | 2976 ft | 161 kts | 89° |
| 2026-04-23 18:56 | 55.52765 | -4.03130 | 2957 ft | 161 kts | 89° |
| 2026-04-23 18:57 | 55.52806 | -4.01254 | 2984 ft | 161 kts | 89° |
| 2026-04-23 18:57 | 55.52849 | -3.99296 | 3000 ft | 161 kts | 89° |
| 2026-04-23 18:57 | 55.52893 | -3.97312 | 3012 ft | 161 kts | 88° |
| 2026-04-23 18:57 | 55.52935 | -3.95355 | 3021 ft | 161 kts | 89° |
| 2026-04-23 18:58 | 55.52978 | -3.93365 | 3021 ft | 161 kts | 89° |
| 2026-04-23 18:58 | 55.53018 | -3.91393 | 3017 ft | 161 kts | 88° |
| 2026-04-23 18:58 | 55.53059 | -3.89431 | 3015 ft | 161 kts | 89° |
| 2026-04-23 18:58 | 55.53099 | -3.87443 | 3005 ft | 161 kts | 90° |
| 2026-04-23 18:59 | 55.53257 | -3.85489 | 3009 ft | 161 kts | 81° |
| 2026-04-23 18:59 | 55.53445 | -3.83547 | 3009 ft | 161 kts | 82° |
| 2026-04-23 18:59 | 55.53622 | -3.81593 | 3019 ft | 162 kts | 83° |
| 2026-04-23 18:59 | 55.53801 | -3.79604 | 3101 ft | 163 kts | 83° |
| 2026-04-23 19:00 | 55.53975 | -3.77621 | 3203 ft | 163 kts | 84° |
| 2026-04-23 19:00 | 55.54144 | -3.75648 | 3303 ft | 163 kts | 84° |
| 2026-04-23 19:00 | 55.54314 | -3.73656 | 3399 ft | 164 kts | 84° |
| 2026-04-23 19:00 | 55.54482 | -3.71674 | 3498 ft | 165 kts | 84° |
| 2026-04-23 19:01 | 55.54652 | -3.69664 | 3594 ft | 165 kts | 84° |
| 2026-04-23 19:01 | 55.54823 | -3.67652 | 3695 ft | 166 kts | 84° |
| 2026-04-23 19:01 | 55.54995 | -3.65633 | 3788 ft | 167 kts | 84° |
| 2026-04-23 19:01 | 55.55164 | -3.63621 | 3887 ft | 167 kts | 84° |
| 2026-04-23 19:02 | 55.55278 | -3.62258 | 3951 ft | 168 kts | 84° |
| 2026-04-23 19:02 | 55.55504 | -3.59563 | 4034 ft | 168 kts | 82° |
| 2026-04-23 19:02 | 55.55685 | -3.57508 | 4036 ft | 168 kts | 82° |
| 2026-04-23 19:02 | 55.55858 | -3.55480 | 4023 ft | 167 kts | 82° |
| 2026-04-23 19:03 | 55.56032 | -3.53426 | 4008 ft | 167 kts | 82° |
| 2026-04-23 19:03 | 55.56203 | -3.51391 | 3997 ft | 168 kts | 82° |
| 2026-04-23 19:03 | 55.56375 | -3.49345 | 3993 ft | 168 kts | 82° |
| 2026-04-23 19:03 | 55.56545 | -3.47303 | 3997 ft | 168 kts | 82° |
| 2026-04-23 19:04 | 55.56712 | -3.45291 | 4003 ft | 168 kts | 82° |
| 2026-04-23 19:04 | 55.56882 | -3.43245 | 4011 ft | 167 kts | 83° |
| 2026-04-23 19:04 | 55.57051 | -3.41218 | 4013 ft | 167 kts | 83° |
| 2026-04-23 19:04 | 55.57220 | -3.39160 | 4010 ft | 167 kts | 83° |
| 2026-04-23 19:05 | 55.57386 | -3.37141 | 4010 ft | 167 kts | 82° |
| 2026-04-23 19:05 | 55.57555 | -3.35109 | 4006 ft | 168 kts | 82° |
| 2026-04-23 19:05 | 55.57721 | -3.33072 | 4010 ft | 168 kts | 82° |
| 2026-04-23 19:05 | 55.57888 | -3.31037 | 4016 ft | 167 kts | 83° |
| 2026-04-23 19:06 | 55.58056 | -3.28980 | 4021 ft | 167 kts | 82° |
| 2026-04-23 19:06 | 55.58221 | -3.26959 | 4022 ft | 167 kts | 82° |
| 2026-04-23 19:06 | 55.58384 | -3.24950 | 4016 ft | 167 kts | 82° |
| 2026-04-23 19:06 | 55.58553 | -3.22884 | 4011 ft | 168 kts | 83° |
| 2026-04-23 19:07 | 55.58718 | -3.20861 | 4012 ft | 168 kts | 83° |
| 2026-04-23 19:07 | 55.58885 | -3.18789 | 4014 ft | 169 kts | 83° |
| 2026-04-23 19:07 | 55.59049 | -3.16755 | 4027 ft | 168 kts | 84° |
| 2026-04-23 19:07 | 55.59214 | -3.14699 | 4025 ft | 168 kts | 84° |
| 2026-04-23 19:08 | 55.59379 | -3.12638 | 4025 ft | 168 kts | 83° |
| 2026-04-23 19:08 | 55.59542 | -3.10610 | 4025 ft | 168 kts | 83° |
| 2026-04-23 19:08 | 55.59703 | -3.08607 | 4024 ft | 169 kts | 83° |
| 2026-04-23 19:08 | 55.59865 | -3.06569 | 4021 ft | 169 kts | 82° |
| 2026-04-23 19:09 | 55.60030 | -3.04502 | 4028 ft | 169 kts | 83° |
| 2026-04-23 19:09 | 55.60194 | -3.02446 | 4028 ft | 169 kts | 82° |
| 2026-04-23 19:09 | 55.60355 | -3.00400 | 4023 ft | 169 kts | 82° |
| 2026-04-23 19:09 | 55.60518 | -2.98325 | 4022 ft | 170 kts | 82° |
| 2026-04-23 19:10 | 55.60680 | -2.96274 | 4027 ft | 169 kts | 81° |
| 2026-04-23 19:10 | 55.60842 | -2.94193 | 4019 ft | 170 kts | 81° |
| 2026-04-23 19:10 | 55.61009 | -2.92103 | 4022 ft | 170 kts | 82° |
| 2026-04-23 19:10 | 55.61171 | -2.90057 | 4028 ft | 169 kts | 82° |
| 2026-04-23 19:11 | 55.61334 | -2.87995 | 4028 ft | 169 kts | 82° |
| 2026-04-23 19:11 | 55.61494 | -2.85951 | 4024 ft | 169 kts | 82° |
| 2026-04-23 19:11 | 55.61654 | -2.83890 | 4020 ft | 168 kts | 82° |
| 2026-04-23 19:11 | 55.61813 | -2.81833 | 4014 ft | 169 kts | 82° |
| 2026-04-23 19:12 | 55.61919 | -2.80480 | 4013 ft | 169 kts | 82° |
| 2026-04-23 19:12 | 55.62129 | -2.77753 | 4018 ft | 168 kts | 83° |
| 2026-04-23 19:12 | 55.62287 | -2.75703 | 4010 ft | 168 kts | 82° |
| 2026-04-23 19:12 | 55.62443 | -2.73653 | 4007 ft | 169 kts | 82° |
| 2026-04-23 19:13 | 55.62602 | -2.71585 | 4005 ft | 170 kts | 83° |
| 2026-04-23 19:13 | 55.62762 | -2.69510 | 4012 ft | 170 kts | 82° |
| 2026-04-23 19:13 | 55.62921 | -2.67451 | 4019 ft | 170 kts | 82° |
| 2026-04-23 19:13 | 55.63080 | -2.65368 | 4031 ft | 169 kts | 82° |
| 2026-04-23 19:14 | 55.63236 | -2.63311 | 4026 ft | 169 kts | 82° |
| 2026-04-23 19:14 | 55.63392 | -2.61269 | 4024 ft | 168 kts | 82° |
| 2026-04-23 19:14 | 55.63548 | -2.59195 | 4003 ft | 168 kts | 82° |
| 2026-04-23 19:14 | 55.63701 | -2.57173 | 3876 ft | 167 kts | 81° |
| 2026-04-23 19:15 | 55.63862 | -2.55133 | 3700 ft | 167 kts | 80° |
| 2026-04-23 19:15 | 55.64019 | -2.53104 | 3518 ft | 166 kts | 80° |
| 2026-04-23 19:15 | 55.64175 | -2.51087 | 3327 ft | 166 kts | 81° |
| 2026-04-23 19:15 | 55.64330 | -2.49054 | 3141 ft | 166 kts | 81° |
| 2026-04-23 19:16 | 55.64482 | -2.47046 | 2957 ft | 165 kts | 80° |
| 2026-04-23 19:16 | 55.64632 | -2.45041 | 2770 ft | 165 kts | 80° |
| 2026-04-23 19:16 | 55.64782 | -2.43047 | 2591 ft | 164 kts | 80° |
| 2026-04-23 19:17 | 55.65068 | -2.39222 | 2232 ft | 162 kts | 81° |
| 2026-04-23 19:17 | 55.65217 | -2.37242 | 2044 ft | 161 kts | 85° |
| 2026-04-23 19:17 | 55.65360 | -2.35293 | 1982 ft | 160 kts | 83° |
| 2026-04-23 19:17 | 55.65495 | -2.33321 | 1980 ft | 160 kts | 84° |
| 2026-04-23 19:18 | 55.65633 | -2.31381 | 2005 ft | 160 kts | 84° |
| 2026-04-23 19:18 | 55.65773 | -2.29406 | 2023 ft | 161 kts | 83° |
| 2026-04-23 19:18 | 55.65914 | -2.27455 | 2036 ft | 161 kts | 83° |
| 2026-04-23 19:18 | 55.66056 | -2.25496 | 2042 ft | 161 kts | 83° |
| 2026-04-23 19:19 | 55.66341 | -2.21559 | 2039 ft | 161 kts | 83° |
| 2026-04-23 19:19 | 55.66482 | -2.19610 | 2037 ft | 161 kts | 83° |
| 2026-04-23 19:20 | 55.66766 | -2.15669 | 2037 ft | 161 kts | 83° |
| 2026-04-23 19:20 | 55.66908 | -2.13703 | 2038 ft | 161 kts | 83° |
| 2026-04-23 19:20 | 55.67049 | -2.11737 | 2043 ft | 161 kts | 83° |
| 2026-04-23 19:20 | 55.67190 | -2.09770 | 2041 ft | 161 kts | 83° |
| 2026-04-23 19:21 | 55.67329 | -2.07823 | 2039 ft | 161 kts | 83° |
| 2026-04-23 19:21 | 55.67609 | -2.03884 | 2033 ft | 161 kts | 83° |
| 2026-04-23 19:21 | 55.67748 | -2.01934 | 2035 ft | 161 kts | 83° |
| 2026-04-23 19:22 | 55.67889 | -1.99946 | 2035 ft | 161 kts | 83° |
| 2026-04-23 19:22 | 55.68027 | -1.97974 | 1985 ft | 161 kts | 81° |
| 2026-04-23 19:22 | 55.68362 | -1.94144 | 1471 ft | 156 kts | 79° |
| 2026-04-23 19:23 | 55.68515 | -1.92262 | 1080 ft | 154 kts | 79° |
| 2026-04-23 19:23 | 55.68729 | -1.90449 | 1040 ft | 145 kts | 79° |
| 2026-04-23 19:23 | 55.68956 | -1.88756 | 972 ft | 134 kts | 80° |
| 2026-04-23 19:24 | 55.69039 | -1.85733 | 981 ft | 114 kts | 95° |
| 2026-04-23 19:24 | 55.68956 | -1.84405 | 925 ft | 106 kts | 98° |
| 2026-04-23 19:24 | 55.68609 | -1.82074 | 589 ft | 91 kts | 119° |
| 2026-04-23 19:25 | 55.67919 | -1.80713 | 435 ft | 46 kts | 142° |
| 2026-04-23 19:25 | 55.67598 | -1.80437 | 239 ft | 12 kts | 148° |
| 2026-04-23 19:26 | 55.67520 | -1.80385 | 173 ft | 3 kts | 166° |
| 2026-04-23 19:26 | 55.67509 | -1.80358 | 129 ft | 3 kts | 163° |
| 2026-04-23 19:27 | 55.67478 | -1.80367 | 47 ft | 1 kts | 165° |
| 2026-04-23 19:27 | 55.67477 | -1.80347 | 28 ft | 0 kts | 165° |
| 2026-04-23 19:31 | 55.67476 | -1.80348 | 30 ft | 0 kts | 168° |
| 2026-04-23 19:31 | 55.67497 | -1.80367 | 69 ft | 8 kts | 166° |
| 2026-04-23 19:32 | 55.67548 | -1.80377 | 213 ft | 7 kts | 168° |
| 2026-04-23 19:32 | 55.67344 | -1.80366 | 322 ft | 67 kts | 165° |
| 2026-04-23 19:32 | 55.66710 | -1.80157 | 414 ft | 111 kts | 166° |
| 2026-04-23 19:32 | 55.65892 | -1.79780 | 528 ft | 127 kts | 162° |
| 2026-04-23 19:33 | 55.65025 | -1.79466 | 702 ft | 129 kts | 165° |
| 2026-04-23 19:33 | 55.64127 | -1.79209 | 886 ft | 131 kts | 168° |
| 2026-04-23 19:33 | 55.62304 | -1.78992 | 1380 ft | 132 kts | 177° |
| 2026-04-23 19:34 | 55.61389 | -1.79048 | 1630 ft | 133 kts | 181° |
| 2026-04-23 19:34 | 55.60468 | -1.79034 | 1882 ft | 135 kts | 172° |
| 2026-04-23 19:34 | 55.58613 | -1.78594 | 2452 ft | 135 kts | 168° |
| 2026-04-23 19:35 | 55.57734 | -1.78347 | 2579 ft | 134 kts | 169° |
| 2026-04-23 19:35 | 55.56808 | -1.78079 | 2537 ft | 135 kts | 169° |
| 2026-04-23 19:35 | 55.55881 | -1.77807 | 2507 ft | 135 kts | 169° |
| 2026-04-23 19:35 | 55.54963 | -1.77538 | 2482 ft | 134 kts | 169° |
| 2026-04-23 19:36 | 55.54026 | -1.77261 | 2496 ft | 135 kts | 169° |
| 2026-04-23 19:36 | 55.53105 | -1.76991 | 2528 ft | 134 kts | 169° |
| 2026-04-23 19:36 | 55.52188 | -1.76721 | 2543 ft | 134 kts | 169° |
| 2026-04-23 19:36 | 55.51270 | -1.76451 | 2549 ft | 134 kts | 169° |
| 2026-04-23 19:37 | 55.50339 | -1.76178 | 2548 ft | 134 kts | 169° |
| 2026-04-23 19:37 | 55.49424 | -1.75910 | 2544 ft | 135 kts | 169° |
| 2026-04-23 19:37 | 55.48495 | -1.75638 | 2542 ft | 135 kts | 169° |
| 2026-04-23 19:37 | 55.47564 | -1.75365 | 2541 ft | 135 kts | 169° |
| 2026-04-23 19:38 | 55.46644 | -1.75096 | 2542 ft | 135 kts | 169° |
| 2026-04-23 19:38 | 55.45640 | -1.74819 | 2473 ft | 156 kts | 168° |
| 2026-04-23 19:38 | 55.44544 | -1.74486 | 2560 ft | 162 kts | 169° |
| 2026-04-23 19:38 | 55.43438 | -1.74160 | 2591 ft | 162 kts | 169° |
| 2026-04-23 19:39 | 55.42319 | -1.73833 | 2577 ft | 163 kts | 169° |
| 2026-04-23 19:39 | 55.41204 | -1.73508 | 2558 ft | 163 kts | 169° |
| 2026-04-23 19:39 | 55.40080 | -1.73182 | 2546 ft | 162 kts | 169° |
| 2026-04-23 19:39 | 55.38968 | -1.72856 | 2542 ft | 162 kts | 169° |
| 2026-04-23 19:40 | 55.37861 | -1.72534 | 2541 ft | 162 kts | 169° |
| 2026-04-23 19:40 | 55.36747 | -1.72210 | 2535 ft | 162 kts | 169° |
| 2026-04-23 19:40 | 55.35630 | -1.71885 | 2538 ft | 162 kts | 169° |
| 2026-04-23 19:40 | 55.34514 | -1.71561 | 2543 ft | 161 kts | 169° |
| 2026-04-23 19:41 | 55.33409 | -1.71240 | 2542 ft | 162 kts | 169° |
| 2026-04-23 19:41 | 55.32305 | -1.70919 | 2542 ft | 162 kts | 169° |
| 2026-04-23 19:41 | 55.31190 | -1.70596 | 2545 ft | 162 kts | 169° |
| 2026-04-23 19:41 | 55.30074 | -1.70272 | 2548 ft | 162 kts | 169° |
| 2026-04-23 19:42 | 55.28966 | -1.69951 | 2554 ft | 162 kts | 169° |
| 2026-04-23 19:42 | 55.27850 | -1.69627 | 2553 ft | 161 kts | 169° |
| 2026-04-23 19:42 | 55.26744 | -1.69308 | 2551 ft | 161 kts | 169° |
| 2026-04-23 19:42 | 55.25648 | -1.68991 | 2548 ft | 161 kts | 169° |
| 2026-04-23 19:43 | 55.24530 | -1.68668 | 2549 ft | 161 kts | 169° |
| 2026-04-23 19:43 | 55.23423 | -1.68348 | 2552 ft | 161 kts | 169° |
| 2026-04-23 19:43 | 55.22322 | -1.68031 | 2557 ft | 161 kts | 169° |
| 2026-04-23 19:43 | 55.21212 | -1.67710 | 2560 ft | 161 kts | 169° |
| 2026-04-23 19:44 | 55.20107 | -1.67391 | 2562 ft | 161 kts | 169° |
| 2026-04-23 19:44 | 55.18996 | -1.67070 | 2556 ft | 161 kts | 169° |
| 2026-04-23 19:44 | 55.17889 | -1.66750 | 2560 ft | 161 kts | 169° |
| 2026-04-23 19:44 | 55.16781 | -1.66431 | 2567 ft | 161 kts | 169° |
| 2026-04-23 19:45 | 55.15691 | -1.66117 | 2566 ft | 161 kts | 169° |
| 2026-04-23 19:45 | 55.14582 | -1.65799 | 2562 ft | 161 kts | 169° |
| 2026-04-23 19:45 | 55.13490 | -1.65485 | 2559 ft | 161 kts | 169° |
| 2026-04-23 19:45 | 55.12371 | -1.65164 | 2556 ft | 161 kts | 169° |
| 2026-04-23 19:46 | 55.11265 | -1.64847 | 2553 ft | 161 kts | 169° |
| 2026-04-23 19:46 | 55.10165 | -1.64531 | 2556 ft | 161 kts | 169° |
| 2026-04-23 19:46 | 55.09057 | -1.64213 | 2564 ft | 161 kts | 169° |
| 2026-04-23 19:46 | 55.07958 | -1.63898 | 2568 ft | 161 kts | 169° |
| 2026-04-23 19:47 | 55.07219 | -1.63686 | 2571 ft | 161 kts | 169° |
| 2026-04-23 19:47 | 55.05741 | -1.63265 | 2525 ft | 160 kts | 168° |
| 2026-04-23 19:47 | 55.04668 | -1.62954 | 2465 ft | 153 kts | 167° |
| 2026-04-23 19:47 | 55.03633 | -1.62645 | 2289 ft | 150 kts | 166° |
| 2026-04-23 19:48 | 55.02616 | -1.62355 | 2030 ft | 147 kts | 167° |
| 2026-04-23 19:48 | 55.01613 | -1.62137 | 1671 ft | 145 kts | 168° |
| 2026-04-23 19:48 | 55.00623 | -1.61848 | 1534 ft | 142 kts | 169° |
| 2026-04-23 19:48 | 54.99720 | -1.61471 | 1421 ft | 122 kts | 160° |
| 2026-04-23 19:49 | 54.99011 | -1.61004 | 1247 ft | 95 kts | 154° |
| 2026-04-23 19:49 | 54.98430 | -1.60826 | 1075 ft | 86 kts | 182° |
| 2026-04-23 19:49 | 54.98148 | -1.61730 | 899 ft | 96 kts | 277° |
| 2026-04-23 19:49 | 54.98078 | -1.62753 | 952 ft | 78 kts | 236° |
| 2026-04-23 19:50 | 54.97755 | -1.63450 | 894 ft | 74 kts | 222° |
| 2026-04-23 19:50 | 54.97785 | -1.64332 | 980 ft | 79 kts | 313° |
| 2026-04-23 19:50 | 54.98207 | -1.64284 | 1122 ft | 57 kts | 78° |
| 2026-04-23 19:50 | 54.98248 | -1.63806 | 993 ft | 35 kts | 88° |
| 2026-04-23 19:51 | 54.98272 | -1.63471 | 828 ft | 23 kts | 95° |
| 2026-04-23 19:51 | 54.98257 | -1.63196 | 737 ft | 27 kts | 113° |
| 2026-04-23 19:51 | 54.98210 | -1.62936 | 561 ft | 18 kts | 114° |
| 2026-04-23 19:51 | 54.98181 | -1.62789 | 434 ft | 6 kts | 113° |
| 2026-04-23 19:52 | 54.98148 | -1.62759 | 377 ft | 5 kts | 128° |
| 2026-04-23 19:52 | 54.98126 | -1.62733 | 343 ft | 4 kts | 99° |
| 2026-04-23 19:52 | 54.98120 | -1.62704 | 298 ft | 4 kts | 91° |
| 2026-04-23 19:52 | 54.98114 | -1.62697 | 278 ft | 2 kts | 86° |
| 2026-04-23 19:53 | 54.98115 | -1.62687 | 257 ft | 0 kts | 88° |
| 2026-04-23 19:53 | 54.98112 | -1.62681 | 251 ft | 2 kts | 93° |
| 2026-04-23 19:53 | 54.98118 | -1.62679 | 244 ft | 1 kts | 98° |
| 2026-04-23 19:53 | 54.98119 | -1.62679 | 243 ft | 0 kts | 103° |
| 2026-04-23 19:57 | 54.98121 | -1.62713 | 325 ft | 8 kts | 96° |
| 2026-04-23 19:57 | 54.98138 | -1.62795 | 485 ft | 10 kts | 97° |
| 2026-04-23 19:57 | 54.98130 | -1.62616 | 608 ft | 51 kts | 98° |
| 2026-04-23 19:58 | 54.98088 | -1.61577 | 620 ft | 110 kts | 98° |
| 2026-04-23 19:58 | 54.98022 | -1.60178 | 821 ft | 120 kts | 89° |
| 2026-04-23 19:58 | 54.98334 | -1.58776 | 1002 ft | 134 kts | 53° |
| 2026-04-23 19:58 | 54.99147 | -1.57939 | 1148 ft | 145 kts | 9° |
| 2026-04-23 19:59 | 55.00146 | -1.58300 | 1291 ft | 150 kts | 337° |
| 2026-04-23 19:59 | 55.00960 | -1.59417 | 1411 ft | 149 kts | 307° |
| 2026-04-23 19:59 | 55.01362 | -1.60956 | 1496 ft | 133 kts | 284° |
| 2026-04-23 19:59 | 55.01573 | -1.62390 | 1567 ft | 109 kts | 286° |
| 2026-04-23 20:00 | 55.01758 | -1.63551 | 1470 ft | 90 kts | 286° |
| 2026-04-23 20:00 | 55.01895 | -1.64556 | 1389 ft | 84 kts | 265° |
| 2026-04-23 20:00 | 55.01712 | -1.65500 | 1398 ft | 82 kts | 241° |
| 2026-04-23 20:00 | 55.01418 | -1.66345 | 1437 ft | 81 kts | 238° |
| 2026-04-23 20:01 | 55.01250 | -1.67280 | 1461 ft | 80 kts | 261° |
| 2026-04-23 20:01 | 55.01213 | -1.68204 | 1479 ft | 75 kts | 268° |
| 2026-04-23 20:01 | 55.01430 | -1.69010 | 1451 ft | 74 kts | 313° |
| 2026-04-23 20:01 | 55.01906 | -1.69542 | 1318 ft | 102 kts | 336° |
| 2026-04-23 20:02 | 55.02726 | -1.70037 | 1405 ft | 138 kts | 338° |
| 2026-04-23 20:02 | 55.03661 | -1.70763 | 1407 ft | 154 kts | 331° |
| 2026-04-23 20:02 | 55.04591 | -1.71718 | 1479 ft | 156 kts | 330° |
| 2026-04-23 20:02 | 55.05526 | -1.72657 | 1509 ft | 155 kts | 330° |
| 2026-04-23 20:03 | 55.06367 | -1.73834 | 1472 ft | 157 kts | 309° |
| 2026-04-23 20:03 | 55.06933 | -1.75491 | 1430 ft | 159 kts | 297° |
| 2026-04-23 20:03 | 55.07455 | -1.77214 | 1430 ft | 160 kts | 298° |
| 2026-04-23 20:03 | 55.07776 | -1.79008 | 1458 ft | 159 kts | 283° |
| 2026-04-23 20:04 | 55.08043 | -1.80857 | 1457 ft | 159 kts | 283° |
| 2026-04-23 20:04 | 55.08315 | -1.82730 | 1452 ft | 159 kts | 283° |
| 2026-04-23 20:04 | 55.08587 | -1.84632 | 1454 ft | 162 kts | 285° |
| 2026-04-23 20:04 | 55.08865 | -1.86549 | 1637 ft | 164 kts | 287° |
| 2026-04-23 20:05 | 55.09154 | -1.88468 | 1892 ft | 164 kts | 287° |
| 2026-04-23 20:05 | 55.09439 | -1.90394 | 2133 ft | 165 kts | 287° |
| 2026-04-23 20:05 | 55.09720 | -1.92311 | 2371 ft | 164 kts | 287° |
| 2026-04-23 20:05 | 55.09999 | -1.94235 | 2488 ft | 164 kts | 285° |
| 2026-04-23 20:06 | 55.10275 | -1.96181 | 2574 ft | 165 kts | 286° |
| 2026-04-23 20:06 | 55.10550 | -1.98113 | 2670 ft | 165 kts | 286° |
| 2026-04-23 20:06 | 55.10826 | -2.00049 | 2764 ft | 165 kts | 286° |
| 2026-04-23 20:06 | 55.11102 | -2.01981 | 2841 ft | 165 kts | 286° |
| 2026-04-23 20:07 | 55.11384 | -2.03937 | 2908 ft | 166 kts | 284° |
| 2026-04-23 20:07 | 55.11656 | -2.05878 | 2955 ft | 165 kts | 283° |
| 2026-04-23 20:07 | 55.11926 | -2.07825 | 2955 ft | 165 kts | 283° |
| 2026-04-23 20:07 | 55.12200 | -2.09783 | 2949 ft | 166 kts | 283° |
| 2026-04-23 20:08 | 55.12473 | -2.11732 | 2947 ft | 165 kts | 283° |
| 2026-04-23 20:08 | 55.12748 | -2.13681 | 2936 ft | 166 kts | 283° |
| 2026-04-23 20:08 | 55.13024 | -2.15640 | 2930 ft | 166 kts | 283° |
| 2026-04-23 20:08 | 55.13299 | -2.17592 | 2933 ft | 165 kts | 283° |
| 2026-04-23 20:09 | 55.13571 | -2.19526 | 2930 ft | 165 kts | 283° |
| 2026-04-23 20:09 | 55.13849 | -2.21494 | 2932 ft | 165 kts | 284° |
| 2026-04-23 20:09 | 55.14119 | -2.23424 | 2921 ft | 166 kts | 284° |
| 2026-04-23 20:09 | 55.14396 | -2.25391 | 2923 ft | 166 kts | 284° |
| 2026-04-23 20:10 | 55.14578 | -2.26686 | 2923 ft | 166 kts | 284° |
| 2026-04-23 20:10 | 55.14946 | -2.29313 | 2927 ft | 167 kts | 284° |
| 2026-04-23 20:10 | 55.15221 | -2.31271 | 2930 ft | 167 kts | 284° |
| 2026-04-23 20:10 | 55.15498 | -2.33254 | 2923 ft | 167 kts | 284° |
| 2026-04-23 20:11 | 55.15771 | -2.35202 | 2924 ft | 167 kts | 284° |
| 2026-04-23 20:11 | 55.16048 | -2.37190 | 2919 ft | 167 kts | 284° |
| 2026-04-23 20:11 | 55.16321 | -2.39146 | 2910 ft | 167 kts | 284° |
| 2026-04-23 20:11 | 55.16595 | -2.41113 | 2912 ft | 167 kts | 284° |
| 2026-04-23 20:12 | 55.16872 | -2.43108 | 2916 ft | 167 kts | 284° |
| 2026-04-23 20:12 | 55.17144 | -2.45064 | 2921 ft | 167 kts | 284° |
| 2026-04-23 20:12 | 55.17417 | -2.47035 | 2910 ft | 167 kts | 284° |
| 2026-04-23 20:12 | 55.17690 | -2.49003 | 2909 ft | 167 kts | 284° |
| 2026-04-23 20:13 | 55.17966 | -2.51005 | 2916 ft | 168 kts | 284° |
| 2026-04-23 20:13 | 55.18237 | -2.52961 | 2923 ft | 167 kts | 284° |
| 2026-04-23 20:13 | 55.18510 | -2.54942 | 2924 ft | 168 kts | 284° |
| 2026-04-23 20:13 | 55.18782 | -2.56917 | 2929 ft | 167 kts | 284° |
| 2026-04-23 20:14 | 55.19054 | -2.58896 | 2924 ft | 166 kts | 284° |
| 2026-04-23 20:14 | 55.19323 | -2.60848 | 2919 ft | 167 kts | 284° |
| 2026-04-23 20:14 | 55.19596 | -2.62835 | 2915 ft | 167 kts | 284° |
| 2026-04-23 20:14 | 55.19865 | -2.64798 | 2919 ft | 167 kts | 284° |
| 2026-04-23 20:15 | 55.20134 | -2.66763 | 2919 ft | 167 kts | 283° |
| 2026-04-23 20:15 | 55.20405 | -2.68748 | 2923 ft | 167 kts | 283° |
| 2026-04-23 20:15 | 55.20676 | -2.70728 | 2918 ft | 167 kts | 283° |
| 2026-04-23 20:15 | 55.20947 | -2.72697 | 2919 ft | 167 kts | 284° |
| 2026-04-23 20:16 | 55.21560 | -2.74325 | 2929 ft | 166 kts | 315° |
| 2026-04-23 20:16 | 55.22362 | -2.75783 | 2931 ft | 166 kts | 311° |
| 2026-04-23 20:16 | 55.23032 | -2.77442 | 2922 ft | 167 kts | 301° |
| 2026-04-23 20:16 | 55.23576 | -2.79231 | 2916 ft | 167 kts | 296° |
| 2026-04-23 20:17 | 55.24033 | -2.81074 | 2917 ft | 167 kts | 292° |
| 2026-04-23 20:17 | 55.24435 | -2.82938 | 2911 ft | 167 kts | 289° |
| 2026-04-23 20:17 | 55.24808 | -2.84851 | 2914 ft | 167 kts | 288° |
| 2026-04-23 20:17 | 55.25156 | -2.86774 | 2918 ft | 166 kts | 287° |
| 2026-04-23 20:18 | 55.25495 | -2.88727 | 2909 ft | 166 kts | 287° |
| 2026-04-23 20:18 | 55.25818 | -2.90650 | 2915 ft | 166 kts | 286° |
| 2026-04-23 20:18 | 55.26138 | -2.92605 | 2911 ft | 166 kts | 286° |
| 2026-04-23 20:18 | 55.26451 | -2.94550 | 2902 ft | 166 kts | 285° |
| 2026-04-23 20:19 | 55.26757 | -2.96475 | 2908 ft | 166 kts | 285° |
| 2026-04-23 20:19 | 55.27070 | -2.98452 | 2911 ft | 166 kts | 285° |
| 2026-04-23 20:19 | 55.27374 | -3.00388 | 2911 ft | 166 kts | 285° |
| 2026-04-23 20:19 | 55.27681 | -3.02351 | 2907 ft | 167 kts | 285° |
| 2026-04-23 20:20 | 55.27983 | -3.04290 | 2914 ft | 166 kts | 285° |
| 2026-04-23 20:20 | 55.28289 | -3.06255 | 2910 ft | 166 kts | 285° |
| 2026-04-23 20:20 | 55.28591 | -3.08199 | 2917 ft | 166 kts | 285° |
| 2026-04-23 20:20 | 55.28893 | -3.10151 | 2912 ft | 166 kts | 285° |
| 2026-04-23 20:21 | 55.29198 | -3.12116 | 2913 ft | 166 kts | 285° |
| 2026-04-23 20:21 | 55.29500 | -3.14077 | 2913 ft | 167 kts | 285° |
| 2026-04-23 20:21 | 55.29802 | -3.16032 | 2917 ft | 167 kts | 286° |
| 2026-04-23 20:21 | 55.30100 | -3.17997 | 3062 ft | 169 kts | 289° |
| 2026-04-23 20:22 | 55.30415 | -3.19981 | 3309 ft | 168 kts | 289° |
| 2026-04-23 20:22 | 55.30729 | -3.21959 | 3554 ft | 168 kts | 289° |
| 2026-04-23 20:22 | 55.31039 | -3.23938 | 3789 ft | 169 kts | 288° |
| 2026-04-23 20:22 | 55.31354 | -3.25926 | 3921 ft | 167 kts | 285° |
| 2026-04-23 20:23 | 55.31644 | -3.27882 | 3933 ft | 168 kts | 285° |
| 2026-04-23 20:23 | 55.31942 | -3.29877 | 3913 ft | 169 kts | 285° |
| 2026-04-23 20:23 | 55.32242 | -3.31877 | 3918 ft | 169 kts | 284° |
| 2026-04-23 20:23 | 55.32542 | -3.33864 | 3912 ft | 168 kts | 284° |
| 2026-04-23 20:24 | 55.32840 | -3.35830 | 3906 ft | 168 kts | 284° |
| 2026-04-23 20:24 | 55.33141 | -3.37811 | 3895 ft | 168 kts | 284° |
| 2026-04-23 20:24 | 55.33440 | -3.39795 | 3901 ft | 168 kts | 284° |
| 2026-04-23 20:24 | 55.33738 | -3.41768 | 3901 ft | 168 kts | 284° |
| 2026-04-23 20:25 | 55.34022 | -3.43650 | 3900 ft | 168 kts | 284° |
| 2026-04-23 20:25 | 55.34319 | -3.45610 | 3899 ft | 168 kts | 284° |
| 2026-04-23 20:25 | 55.34609 | -3.47530 | 3903 ft | 168 kts | 284° |
| 2026-04-23 20:25 | 55.34911 | -3.49535 | 3906 ft | 168 kts | 284° |
| 2026-04-23 20:26 | 55.35209 | -3.51504 | 3906 ft | 169 kts | 284° |
| 2026-04-23 20:26 | 55.35511 | -3.53511 | 3905 ft | 169 kts | 284° |
| 2026-04-23 20:26 | 55.35812 | -3.55510 | 3914 ft | 169 kts | 284° |
| 2026-04-23 20:26 | 55.36109 | -3.57489 | 3917 ft | 168 kts | 284° |
| 2026-04-23 20:27 | 55.36410 | -3.59490 | 3911 ft | 169 kts | 284° |
| 2026-04-23 20:27 | 55.36707 | -3.61466 | 3908 ft | 169 kts | 284° |
| 2026-04-23 20:27 | 55.37006 | -3.63463 | 3909 ft | 168 kts | 284° |
| 2026-04-23 20:27 | 55.37301 | -3.65444 | 3911 ft | 168 kts | 283° |
| 2026-04-23 20:28 | 55.37599 | -3.67433 | 3909 ft | 168 kts | 283° |
| 2026-04-23 20:28 | 55.37899 | -3.69436 | 3907 ft | 169 kts | 283° |
| 2026-04-23 20:28 | 55.38195 | -3.71429 | 3917 ft | 168 kts | 283° |
| 2026-04-23 20:28 | 55.38491 | -3.73416 | 3915 ft | 168 kts | 283° |
| 2026-04-23 20:29 | 55.38786 | -3.75400 | 3907 ft | 169 kts | 283° |
| 2026-04-23 20:29 | 55.39084 | -3.77406 | 3901 ft | 169 kts | 283° |
| 2026-04-23 20:29 | 55.39379 | -3.79400 | 3909 ft | 169 kts | 283° |
| 2026-04-23 20:29 | 55.39677 | -3.81407 | 3910 ft | 169 kts | 283° |
| 2026-04-23 20:30 | 55.39971 | -3.83398 | 3915 ft | 169 kts | 284° |
| 2026-04-23 20:30 | 55.40557 | -3.87365 | 3908 ft | 168 kts | 283° |
| 2026-04-23 20:30 | 55.40853 | -3.89369 | 3905 ft | 168 kts | 283° |
| 2026-04-23 20:31 | 55.41144 | -3.91347 | 3909 ft | 168 kts | 283° |
| 2026-04-23 20:31 | 55.41439 | -3.93350 | 3904 ft | 168 kts | 283° |
| 2026-04-23 20:31 | 55.41727 | -3.95312 | 3814 ft | 167 kts | 282° |
| 2026-04-23 20:31 | 55.42012 | -3.97291 | 3637 ft | 167 kts | 281° |
| 2026-04-23 20:32 | 55.42296 | -3.99255 | 3457 ft | 167 kts | 281° |
| 2026-04-23 20:32 | 55.42583 | -4.01231 | 3277 ft | 166 kts | 281° |
| 2026-04-23 20:32 | 55.42870 | -4.03202 | 3079 ft | 167 kts | 282° |
| 2026-04-23 20:32 | 55.43159 | -4.05187 | 2900 ft | 168 kts | 282° |
| 2026-04-23 20:33 | 55.43450 | -4.07191 | 2708 ft | 168 kts | 282° |
| 2026-04-23 20:33 | 55.43739 | -4.09176 | 2602 ft | 169 kts | 283° |
| 2026-04-23 20:33 | 55.44035 | -4.11190 | 2566 ft | 167 kts | 283° |
| 2026-04-23 20:33 | 55.44322 | -4.13153 | 2525 ft | 167 kts | 283° |
| 2026-04-23 20:34 | 55.44606 | -4.15130 | 2482 ft | 166 kts | 284° |
| 2026-04-23 20:34 | 55.44899 | -4.17114 | 2443 ft | 167 kts | 284° |
| 2026-04-23 20:34 | 55.45187 | -4.19090 | 2408 ft | 167 kts | 284° |
| 2026-04-23 20:34 | 55.45473 | -4.21070 | 2369 ft | 167 kts | 284° |
| 2026-04-23 20:35 | 55.45756 | -4.23031 | 2328 ft | 167 kts | 284° |
| 2026-04-23 20:35 | 55.46042 | -4.25018 | 2290 ft | 167 kts | 284° |
| 2026-04-23 20:35 | 55.46330 | -4.27015 | 2253 ft | 167 kts | 285° |
| 2026-04-23 20:35 | 55.46617 | -4.29002 | 2105 ft | 168 kts | 284° |
| 2026-04-23 20:36 | 55.46897 | -4.30977 | 1958 ft | 168 kts | 284° |
| 2026-04-23 20:36 | 55.47187 | -4.32989 | 1901 ft | 168 kts | 284° |
| 2026-04-23 20:36 | 55.47471 | -4.34971 | 1887 ft | 168 kts | 284° |
| 2026-04-23 20:36 | 55.47751 | -4.36931 | 1876 ft | 168 kts | 285° |
| 2026-04-23 20:37 | 55.48033 | -4.38908 | 1884 ft | 168 kts | 285° |
| 2026-04-23 20:37 | 55.48318 | -4.40897 | 1889 ft | 168 kts | 285° |
| 2026-04-23 20:37 | 55.48605 | -4.42918 | 1884 ft | 168 kts | 285° |
| 2026-04-23 20:37 | 55.48837 | -4.44938 | 1837 ft | 168 kts | 282° |
| 2026-04-23 20:38 | 55.48999 | -4.46951 | 1662 ft | 167 kts | 281° |
| 2026-04-23 20:38 | 55.49182 | -4.48961 | 1453 ft | 166 kts | 282° |
| 2026-04-23 20:38 | 55.49376 | -4.50942 | 1268 ft | 159 kts | 286° |
| 2026-04-23 20:38 | 55.49490 | -4.52724 | 1071 ft | 132 kts | 274° |
| 2026-04-23 20:39 | 55.49479 | -4.54168 | 918 ft | 107 kts | 273° |
| 2026-04-23 20:39 | 55.49592 | -4.55386 | 624 ft | 93 kts | 294° |
| 2026-04-23 20:39 | 55.49867 | -4.56328 | 398 ft | 82 kts | 296° |
| 2026-04-23 20:39 | 55.50135 | -4.57155 | 215 ft | 73 kts | 302° |
| 2026-04-23 20:40 | 55.50361 | -4.57823 | 128 ft | 46 kts | 301° |
| 2026-04-23 20:40 | 55.50499 | -4.58208 | 108 ft | 30 kts | 317° |
| 2026-04-23 20:40 | 55.50592 | -4.58454 | 75 ft | 17 kts | 323° |
| 2026-04-23 20:40 | 55.50638 | -4.58549 | 82 ft | 7 kts | 346° |
| 2026-04-23 20:41 | 55.50692 | -4.58679 | 92 ft | 21 kts | 300° |
| 2026-04-23 20:41 | 55.50761 | -4.58889 | 67 ft | 15 kts | 305° |
| 2026-04-23 20:41 | 55.50819 | -4.58858 | 88 ft | 18 kts | 62° |
| 2026-04-23 20:41 | 55.50918 | -4.58573 | 104 ft | 32 kts | 59° |
| 2026-04-23 20:42 | 55.50984 | -4.58348 | 92 ft | 14 kts | 65° |
| 2026-04-23 20:42 | 55.51022 | -4.58233 | 74 ft | 6 kts | 84° |
| 2026-04-23 20:42 | 55.51028 | -4.58211 | 71 ft | 0 kts | 70° |
| 2026-04-23 20:42 | 55.51032 | -4.58207 | 61 ft | 0 kts | 72° |
| 2026-04-23 20:43 | 55.51032 | -4.58206 | 60 ft | 0 kts | 72° |